sensor_id;sensor_type;location;lat;lon;timestamp;P1;durP1;ratioP1;P2;durP2;ratioP2
2474;SDS011;1248;48.694;10.160;2022-08-23T00:01:55;6.73;;;5.73;;
2474;SDS011;1248;48.694;10.160;2022-08-23T00:04:24;5.70;;;4.63;;
2474;SDS011;1248;48.694;10.160;2022-08-23T00:06:53;7.63;;;5.20;;
2474;SDS011;1248;48.694;10.160;2022-08-23T00:09:22;5.53;;;5.10;;
2474;SDS011;1248;48.694;10.160;2022-08-23T00:11:50;7.77;;;5.00;;
2474;SDS011;1248;48.694;10.160;2022-08-23T00:14:20;8.87;;;5.37;;
2474;SDS011;1248;48.694;10.160;2022-08-23T00:16:50;6.37;;;4.97;;
2474;SDS011;1248;48.694;10.160;2022-08-23T00:19:18;5.40;;;4.90;;
2474;SDS011;1248;48.694;10.160;2022-08-23T00:21:47;8.43;;;4.97;;
2474;SDS011;1248;48.694;10.160;2022-08-23T00:24:15;6.77;;;5.00;;
2474;SDS011;1248;48.694;10.160;2022-08-23T00:26:53;5.90;;;5.40;;
2474;SDS011;1248;48.694;10.160;2022-08-23T00:29:23;7.20;;;5.20;;
2474;SDS011;1248;48.694;10.160;2022-08-23T00:31:54;9.70;;;5.23;;
2474;SDS011;1248;48.694;10.160;2022-08-23T00:34:22;7.97;;;5.43;;
2474;SDS011;1248;48.694;10.160;2022-08-23T00:36:49;7.53;;;5.00;;
2474;SDS011;1248;48.694;10.160;2022-08-23T00:39:16;8.00;;;5.60;;
2474;SDS011;1248;48.694;10.160;2022-08-23T00:41:45;5.53;;;5.03;;
2474;SDS011;1248;48.694;10.160;2022-08-23T00:44:15;8.90;;;6.00;;
2474;SDS011;1248;48.694;10.160;2022-08-23T00:47:04;6.20;;;5.60;;
2474;SDS011;1248;48.694;10.160;2022-08-23T00:49:46;7.27;;;5.37;;
2474;SDS011;1248;48.694;10.160;2022-08-23T00:52:19;6.33;;;4.60;;
2474;SDS011;1248;48.694;10.160;2022-08-23T00:54:51;6.20;;;5.70;;
2474;SDS011;1248;48.694;10.160;2022-08-23T00:57:20;6.83;;;5.40;;
2474;SDS011;1248;48.694;10.160;2022-08-23T00:59:47;5.63;;;5.13;;
2474;SDS011;1248;48.694;10.160;2022-08-23T01:02:16;9.47;;;5.20;;
2474;SDS011;1248;48.694;10.160;2022-08-23T01:04:57;10.20;;;5.93;;
2474;SDS011;1248;48.694;10.160;2022-08-23T01:07:28;9.00;;;6.27;;
2474;SDS011;1248;48.694;10.160;2022-08-23T01:10:00;6.73;;;5.80;;
2474;SDS011;1248;48.694;10.160;2022-08-23T01:12:31;7.80;;;5.70;;
2474;SDS011;1248;48.694;10.160;2022-08-23T01:15:02;6.00;;;5.50;;
2474;SDS011;1248;48.694;10.160;2022-08-23T01:17:34;5.63;;;5.10;;
2474;SDS011;1248;48.694;10.160;2022-08-23T01:20:05;6.07;;;5.50;;
2474;SDS011;1248;48.694;10.160;2022-08-23T01:22:36;5.87;;;5.27;;
2474;SDS011;1248;48.694;10.160;2022-08-23T01:25:09;11.07;;;6.13;;
2474;SDS011;1248;48.694;10.160;2022-08-23T01:27:37;9.53;;;5.17;;
2474;SDS011;1248;48.694;10.160;2022-08-23T01:30:06;11.27;;;6.03;;
2474;SDS011;1248;48.694;10.160;2022-08-23T01:32:36;8.17;;;5.00;;
2474;SDS011;1248;48.694;10.160;2022-08-23T01:35:05;9.63;;;6.20;;
2474;SDS011;1248;48.694;10.160;2022-08-23T01:37:33;6.80;;;5.10;;
2474;SDS011;1248;48.694;10.160;2022-08-23T01:40:00;6.70;;;5.80;;
2474;SDS011;1248;48.694;10.160;2022-08-23T01:42:29;8.27;;;6.53;;
2474;SDS011;1248;48.694;10.160;2022-08-23T01:44:56;6.13;;;5.63;;
2474;SDS011;1248;48.694;10.160;2022-08-23T01:47:23;6.73;;;5.60;;
2474;SDS011;1248;48.694;10.160;2022-08-23T01:49:50;6.73;;;5.30;;
2474;SDS011;1248;48.694;10.160;2022-08-23T01:52:17;5.50;;;5.00;;
2474;SDS011;1248;48.694;10.160;2022-08-23T01:54:44;6.93;;;6.07;;
2474;SDS011;1248;48.694;10.160;2022-08-23T01:57:11;8.20;;;5.83;;
2474;SDS011;1248;48.694;10.160;2022-08-23T01:59:40;6.67;;;6.00;;
2474;SDS011;1248;48.694;10.160;2022-08-23T02:02:08;14.50;;;5.83;;
2474;SDS011;1248;48.694;10.160;2022-08-23T02:04:35;7.57;;;5.70;;
2474;SDS011;1248;48.694;10.160;2022-08-23T02:07:02;5.77;;;5.37;;
2474;SDS011;1248;48.694;10.160;2022-08-23T02:09:29;6.60;;;5.73;;
2474;SDS011;1248;48.694;10.160;2022-08-23T02:11:57;8.03;;;5.40;;
2474;SDS011;1248;48.694;10.160;2022-08-23T02:14:24;13.20;;;5.67;;
2474;SDS011;1248;48.694;10.160;2022-08-23T02:16:53;6.40;;;5.90;;
2474;SDS011;1248;48.694;10.160;2022-08-23T02:19:21;6.97;;;6.33;;
2474;SDS011;1248;48.694;10.160;2022-08-23T02:21:48;6.80;;;5.53;;
2474;SDS011;1248;48.694;10.160;2022-08-23T02:24:17;5.80;;;5.30;;
2474;SDS011;1248;48.694;10.160;2022-08-23T02:26:47;6.93;;;5.80;;
2474;SDS011;1248;48.694;10.160;2022-08-23T02:29:18;5.90;;;5.40;;
2474;SDS011;1248;48.694;10.160;2022-08-23T02:31:47;6.70;;;5.70;;
2474;SDS011;1248;48.694;10.160;2022-08-23T02:34:16;8.03;;;6.00;;
2474;SDS011;1248;48.694;10.160;2022-08-23T02:36:44;8.80;;;5.33;;
2474;SDS011;1248;48.694;10.160;2022-08-23T02:39:12;6.00;;;5.30;;
2474;SDS011;1248;48.694;10.160;2022-08-23T02:41:39;6.70;;;5.63;;
2474;SDS011;1248;48.694;10.160;2022-08-23T02:44:06;10.17;;;6.27;;
2474;SDS011;1248;48.694;10.160;2022-08-23T02:46:35;6.37;;;5.83;;
2474;SDS011;1248;48.694;10.160;2022-08-23T02:49:03;6.57;;;5.90;;
2474;SDS011;1248;48.694;10.160;2022-08-23T02:51:31;7.43;;;6.23;;
2474;SDS011;1248;48.694;10.160;2022-08-23T02:53:58;10.17;;;6.40;;
2474;SDS011;1248;48.694;10.160;2022-08-23T02:56:25;9.30;;;5.43;;
2474;SDS011;1248;48.694;10.160;2022-08-23T02:58:52;6.17;;;5.60;;
2474;SDS011;1248;48.694;10.160;2022-08-23T03:01:21;6.23;;;5.63;;
2474;SDS011;1248;48.694;10.160;2022-08-23T03:03:50;8.13;;;7.33;;
2474;SDS011;1248;48.694;10.160;2022-08-23T03:06:17;9.83;;;6.13;;
2474;SDS011;1248;48.694;10.160;2022-08-23T03:08:46;7.40;;;6.73;;
2474;SDS011;1248;48.694;10.160;2022-08-23T03:11:13;9.30;;;6.20;;
2474;SDS011;1248;48.694;10.160;2022-08-23T03:13:42;7.40;;;6.07;;
2474;SDS011;1248;48.694;10.160;2022-08-23T03:16:10;6.63;;;5.97;;
2474;SDS011;1248;48.694;10.160;2022-08-23T03:18:38;8.57;;;6.27;;
2474;SDS011;1248;48.694;10.160;2022-08-23T03:23:38;10.70;;;6.20;;
2474;SDS011;1248;48.694;10.160;2022-08-23T03:26:08;9.73;;;6.07;;
2474;SDS011;1248;48.694;10.160;2022-08-23T03:28:37;9.67;;;6.77;;
2474;SDS011;1248;48.694;10.160;2022-08-23T03:31:05;11.90;;;6.57;;
2474;SDS011;1248;48.694;10.160;2022-08-23T03:33:33;8.13;;;6.53;;
2474;SDS011;1248;48.694;10.160;2022-08-23T03:36:01;9.57;;;6.77;;
2474;SDS011;1248;48.694;10.160;2022-08-23T03:38:32;7.60;;;6.90;;
2474;SDS011;1248;48.694;10.160;2022-08-23T03:40:59;8.40;;;6.30;;
2474;SDS011;1248;48.694;10.160;2022-08-23T03:43:28;7.90;;;6.67;;
2474;SDS011;1248;48.694;10.160;2022-08-23T03:45:55;8.93;;;6.93;;
2474;SDS011;1248;48.694;10.160;2022-08-23T03:48:23;6.70;;;5.93;;
2474;SDS011;1248;48.694;10.160;2022-08-23T03:50:50;7.27;;;6.57;;
2474;SDS011;1248;48.694;10.160;2022-08-23T03:53:17;9.13;;;6.20;;
2474;SDS011;1248;48.694;10.160;2022-08-23T03:55:44;10.53;;;6.93;;
2474;SDS011;1248;48.694;10.160;2022-08-23T03:58:12;7.20;;;6.43;;
2474;SDS011;1248;48.694;10.160;2022-08-23T04:00:40;14.17;;;7.27;;
2474;SDS011;1248;48.694;10.160;2022-08-23T04:03:07;14.73;;;7.07;;
2474;SDS011;1248;48.694;10.160;2022-08-23T04:05:34;7.80;;;5.97;;
2474;SDS011;1248;48.694;10.160;2022-08-23T04:08:05;7.43;;;6.73;;
2474;SDS011;1248;48.694;10.160;2022-08-23T04:10:33;7.90;;;6.13;;
2474;SDS011;1248;48.694;10.160;2022-08-23T04:13:01;7.33;;;5.87;;
2474;SDS011;1248;48.694;10.160;2022-08-23T04:15:28;9.10;;;6.30;;
2474;SDS011;1248;48.694;10.160;2022-08-23T04:17:58;7.80;;;6.13;;
2474;SDS011;1248;48.694;10.160;2022-08-23T04:20:25;9.20;;;6.07;;
2474;SDS011;1248;48.694;10.160;2022-08-23T04:22:52;9.57;;;6.57;;
2474;SDS011;1248;48.694;10.160;2022-08-23T04:25:20;8.40;;;6.13;;
2474;SDS011;1248;48.694;10.160;2022-08-23T04:27:47;8.17;;;6.53;;
2474;SDS011;1248;48.694;10.160;2022-08-23T04:30:14;16.00;;;7.00;;
2474;SDS011;1248;48.694;10.160;2022-08-23T04:32:44;13.70;;;7.33;;
2474;SDS011;1248;48.694;10.160;2022-08-23T04:35:13;14.00;;;7.23;;
2474;SDS011;1248;48.694;10.160;2022-08-23T04:37:40;13.67;;;9.03;;
2474;SDS011;1248;48.694;10.160;2022-08-23T04:40:08;13.70;;;7.57;;
2474;SDS011;1248;48.694;10.160;2022-08-23T04:42:53;12.47;;;7.27;;
2474;SDS011;1248;48.694;10.160;2022-08-23T04:45:20;9.00;;;6.80;;
2474;SDS011;1248;48.694;10.160;2022-08-23T04:47:48;11.47;;;7.67;;
2474;SDS011;1248;48.694;10.160;2022-08-23T04:50:17;11.33;;;7.07;;
2474;SDS011;1248;48.694;10.160;2022-08-23T04:52:44;7.47;;;6.70;;
2474;SDS011;1248;48.694;10.160;2022-08-23T04:55:11;9.50;;;6.23;;
2474;SDS011;1248;48.694;10.160;2022-08-23T04:57:38;8.60;;;6.03;;
2474;SDS011;1248;48.694;10.160;2022-08-23T05:00:07;8.70;;;6.27;;
2474;SDS011;1248;48.694;10.160;2022-08-23T05:02:37;10.83;;;7.33;;
2474;SDS011;1248;48.694;10.160;2022-08-23T05:05:04;13.47;;;8.13;;
2474;SDS011;1248;48.694;10.160;2022-08-23T05:07:34;16.60;;;7.90;;
2474;SDS011;1248;48.694;10.160;2022-08-23T05:10:02;15.63;;;8.20;;
2474;SDS011;1248;48.694;10.160;2022-08-23T05:12:29;11.63;;;7.40;;
2474;SDS011;1248;48.694;10.160;2022-08-23T05:14:56;11.50;;;7.70;;
2474;SDS011;1248;48.694;10.160;2022-08-23T05:17:23;12.30;;;8.40;;
2474;SDS011;1248;48.694;10.160;2022-08-23T05:19:50;15.00;;;8.50;;
2474;SDS011;1248;48.694;10.160;2022-08-23T05:22:18;12.43;;;7.63;;
2474;SDS011;1248;48.694;10.160;2022-08-23T05:24:46;15.80;;;8.30;;
2474;SDS011;1248;48.694;10.160;2022-08-23T05:27:13;13.20;;;7.60;;
2474;SDS011;1248;48.694;10.160;2022-08-23T05:29:40;13.37;;;8.03;;
2474;SDS011;1248;48.694;10.160;2022-08-23T05:32:07;16.37;;;8.20;;
2474;SDS011;1248;48.694;10.160;2022-08-23T05:34:35;8.67;;;7.77;;
2474;SDS011;1248;48.694;10.160;2022-08-23T05:37:02;13.30;;;8.07;;
2474;SDS011;1248;48.694;10.160;2022-08-23T05:39:29;14.13;;;8.23;;
2474;SDS011;1248;48.694;10.160;2022-08-23T05:41:58;10.90;;;8.90;;
2474;SDS011;1248;48.694;10.160;2022-08-23T05:44:25;10.90;;;8.60;;
2474;SDS011;1248;48.694;10.160;2022-08-23T05:46:52;12.60;;;8.60;;
2474;SDS011;1248;48.694;10.160;2022-08-23T05:49:19;9.70;;;7.53;;
2474;SDS011;1248;48.694;10.160;2022-08-23T05:51:46;11.00;;;8.20;;
2474;SDS011;1248;48.694;10.160;2022-08-23T05:54:13;8.23;;;6.90;;
2474;SDS011;1248;48.694;10.160;2022-08-23T05:56:42;10.57;;;7.57;;
2474;SDS011;1248;48.694;10.160;2022-08-23T05:59:11;11.90;;;7.37;;
2474;SDS011;1248;48.694;10.160;2022-08-23T06:01:40;10.00;;;7.87;;
2474;SDS011;1248;48.694;10.160;2022-08-23T06:04:08;11.63;;;6.87;;
2474;SDS011;1248;48.694;10.160;2022-08-23T06:06:37;13.13;;;7.20;;
2474;SDS011;1248;48.694;10.160;2022-08-23T06:09:05;10.97;;;7.70;;
2474;SDS011;1248;48.694;10.160;2022-08-23T06:11:34;8.70;;;7.80;;
2474;SDS011;1248;48.694;10.160;2022-08-23T06:14:02;16.67;;;8.00;;
2474;SDS011;1248;48.694;10.160;2022-08-23T06:16:32;13.93;;;6.90;;
2474;SDS011;1248;48.694;10.160;2022-08-23T06:19:00;8.90;;;6.60;;
2474;SDS011;1248;48.694;10.160;2022-08-23T06:21:28;17.47;;;7.37;;
2474;SDS011;1248;48.694;10.160;2022-08-23T06:23:56;11.10;;;6.80;;
2474;SDS011;1248;48.694;10.160;2022-08-23T06:26:24;9.07;;;6.20;;
2474;SDS011;1248;48.694;10.160;2022-08-23T06:28:52;11.53;;;7.83;;
2474;SDS011;1248;48.694;10.160;2022-08-23T06:31:21;9.30;;;6.30;;
2474;SDS011;1248;48.694;10.160;2022-08-23T06:34:05;9.60;;;6.50;;
2474;SDS011;1248;48.694;10.160;2022-08-23T06:36:32;7.30;;;5.80;;
2474;SDS011;1248;48.694;10.160;2022-08-23T06:38:59;8.65;;;6.75;;
2474;SDS011;1248;48.694;10.160;2022-08-23T06:41:26;10.53;;;6.53;;
2474;SDS011;1248;48.694;10.160;2022-08-23T06:43:53;8.50;;;5.43;;
2474;SDS011;1248;48.694;10.160;2022-08-23T06:46:22;8.77;;;6.50;;
2474;SDS011;1248;48.694;10.160;2022-08-23T06:48:52;6.60;;;5.30;;
2474;SDS011;1248;48.694;10.160;2022-08-23T06:51:22;8.17;;;5.70;;
2474;SDS011;1248;48.694;10.160;2022-08-23T06:53:50;12.27;;;6.00;;
2474;SDS011;1248;48.694;10.160;2022-08-23T06:56:18;8.87;;;5.97;;
2474;SDS011;1248;48.694;10.160;2022-08-23T06:58:45;14.20;;;5.70;;
2474;SDS011;1248;48.694;10.160;2022-08-23T07:01:17;8.77;;;5.10;;
2474;SDS011;1248;48.694;10.160;2022-08-23T07:03:45;9.33;;;5.63;;
2474;SDS011;1248;48.694;10.160;2022-08-23T07:06:12;7.57;;;5.17;;
2474;SDS011;1248;48.694;10.160;2022-08-23T07:08:41;7.27;;;4.80;;
2474;SDS011;1248;48.694;10.160;2022-08-23T07:11:08;5.43;;;4.90;;
2474;SDS011;1248;48.694;10.160;2022-08-23T07:13:35;5.63;;;5.13;;
2474;SDS011;1248;48.694;10.160;2022-08-23T07:16:02;8.27;;;4.83;;
2474;SDS011;1248;48.694;10.160;2022-08-23T07:18:30;7.93;;;4.70;;
2474;SDS011;1248;48.694;10.160;2022-08-23T07:20:57;9.53;;;5.20;;
2474;SDS011;1248;48.694;10.160;2022-08-23T07:23:25;5.47;;;4.97;;
2474;SDS011;1248;48.694;10.160;2022-08-23T07:25:54;5.70;;;5.03;;
2474;SDS011;1248;48.694;10.160;2022-08-23T07:28:21;8.73;;;4.93;;
2474;SDS011;1248;48.694;10.160;2022-08-23T07:30:48;9.70;;;5.00;;
2474;SDS011;1248;48.694;10.160;2022-08-23T07:33:15;11.40;;;6.10;;
2474;SDS011;1248;48.694;10.160;2022-08-23T07:35:46;6.80;;;4.30;;
2474;SDS011;1248;48.694;10.160;2022-08-23T07:38:13;4.87;;;4.17;;
2474;SDS011;1248;48.694;10.160;2022-08-23T07:40:41;5.20;;;4.20;;
2474;SDS011;1248;48.694;10.160;2022-08-23T07:43:09;7.30;;;5.37;;
2474;SDS011;1248;48.694;10.160;2022-08-23T07:45:37;5.33;;;4.83;;
2474;SDS011;1248;48.694;10.160;2022-08-23T07:48:05;5.50;;;4.90;;
2474;SDS011;1248;48.694;10.160;2022-08-23T07:50:32;7.50;;;4.80;;
2474;SDS011;1248;48.694;10.160;2022-08-23T07:53:04;7.83;;;4.73;;
2474;SDS011;1248;48.694;10.160;2022-08-23T07:55:31;8.63;;;4.70;;
2474;SDS011;1248;48.694;10.160;2022-08-23T07:57:58;7.60;;;4.83;;
2474;SDS011;1248;48.694;10.160;2022-08-23T08:00:27;9.33;;;5.07;;
2474;SDS011;1248;48.694;10.160;2022-08-23T08:02:54;7.83;;;4.30;;
2474;SDS011;1248;48.694;10.160;2022-08-23T08:05:21;4.83;;;4.33;;
2474;SDS011;1248;48.694;10.160;2022-08-23T08:07:48;6.03;;;4.50;;
2474;SDS011;1248;48.694;10.160;2022-08-23T08:10:15;5.47;;;4.60;;
2474;SDS011;1248;48.694;10.160;2022-08-23T08:12:42;11.23;;;5.33;;
2474;SDS011;1248;48.694;10.160;2022-08-23T08:15:09;6.73;;;4.10;;
2474;SDS011;1248;48.694;10.160;2022-08-23T08:17:38;8.17;;;4.17;;
2474;SDS011;1248;48.694;10.160;2022-08-23T08:20:05;6.30;;;3.83;;
2474;SDS011;1248;48.694;10.160;2022-08-23T08:22:33;6.00;;;4.30;;
2474;SDS011;1248;48.694;10.160;2022-08-23T08:25:00;8.77;;;4.50;;
2474;SDS011;1248;48.694;10.160;2022-08-23T08:27:27;5.07;;;3.30;;
2474;SDS011;1248;48.694;10.160;2022-08-23T08:29:54;7.10;;;3.73;;
2474;SDS011;1248;48.694;10.160;2022-08-23T08:32:22;7.70;;;4.00;;
2474;SDS011;1248;48.694;10.160;2022-08-23T08:34:50;4.00;;;3.60;;
2474;SDS011;1248;48.694;10.160;2022-08-23T08:37:17;7.03;;;3.73;;
2474;SDS011;1248;48.694;10.160;2022-08-23T08:39:44;9.57;;;3.40;;
2474;SDS011;1248;48.694;10.160;2022-08-23T08:42:18;4.30;;;3.17;;
2474;SDS011;1248;48.694;10.160;2022-08-23T08:44:53;5.87;;;4.03;;
2474;SDS011;1248;48.694;10.160;2022-08-23T08:47:24;6.03;;;3.60;;
2474;SDS011;1248;48.694;10.160;2022-08-23T08:50:08;4.50;;;3.57;;
2474;SDS011;1248;48.694;10.160;2022-08-23T08:52:39;3.50;;;3.20;;
2474;SDS011;1248;48.694;10.160;2022-08-23T08:55:09;4.93;;;3.40;;
2474;SDS011;1248;48.694;10.160;2022-08-23T08:57:39;3.57;;;3.00;;
2474;SDS011;1248;48.694;10.160;2022-08-23T09:00:08;7.70;;;3.70;;
2474;SDS011;1248;48.694;10.160;2022-08-23T09:02:38;7.77;;;3.43;;
2474;SDS011;1248;48.694;10.160;2022-08-23T09:05:06;4.57;;;2.83;;
2474;SDS011;1248;48.694;10.160;2022-08-23T09:07:41;4.23;;;2.67;;
2474;SDS011;1248;48.694;10.160;2022-08-23T09:10:21;3.97;;;3.53;;
2474;SDS011;1248;48.694;10.160;2022-08-23T09:13:02;4.43;;;2.93;;
2474;SDS011;1248;48.694;10.160;2022-08-23T09:15:40;3.43;;;3.13;;
2474;SDS011;1248;48.694;10.160;2022-08-23T09:18:14;4.70;;;3.00;;
2474;SDS011;1248;48.694;10.160;2022-08-23T09:20:43;7.53;;;3.50;;
2474;SDS011;1248;48.694;10.160;2022-08-23T09:23:14;3.20;;;2.73;;
2474;SDS011;1248;48.694;10.160;2022-08-23T09:25:49;2.90;;;2.70;;
2474;SDS011;1248;48.694;10.160;2022-08-23T09:28:17;5.47;;;3.37;;
2474;SDS011;1248;48.694;10.160;2022-08-23T09:30:46;8.13;;;3.40;;
2474;SDS011;1248;48.694;10.160;2022-08-23T09:33:16;4.40;;;2.97;;
2474;SDS011;1248;48.694;10.160;2022-08-23T09:35:47;4.77;;;3.07;;
2474;SDS011;1248;48.694;10.160;2022-08-23T09:38:29;5.43;;;3.20;;
2474;SDS011;1248;48.694;10.160;2022-08-23T09:40:56;7.07;;;2.87;;
2474;SDS011;1248;48.694;10.160;2022-08-23T09:43:24;3.73;;;2.40;;
2474;SDS011;1248;48.694;10.160;2022-08-23T09:45:54;3.40;;;2.50;;
2474;SDS011;1248;48.694;10.160;2022-08-23T09:48:31;5.90;;;3.07;;
2474;SDS011;1248;48.694;10.160;2022-08-23T09:51:04;6.60;;;2.63;;
2474;SDS011;1248;48.694;10.160;2022-08-23T09:53:34;2.50;;;2.30;;
2474;SDS011;1248;48.694;10.160;2022-08-23T09:56:08;4.50;;;3.20;;
2474;SDS011;1248;48.694;10.160;2022-08-23T09:58:38;4.00;;;3.03;;
2474;SDS011;1248;48.694;10.160;2022-08-23T10:01:08;5.57;;;3.10;;
2474;SDS011;1248;48.694;10.160;2022-08-23T10:03:38;5.40;;;2.70;;
2474;SDS011;1248;48.694;10.160;2022-08-23T10:06:08;4.80;;;2.60;;
2474;SDS011;1248;48.694;10.160;2022-08-23T10:08:37;5.63;;;2.67;;
2474;SDS011;1248;48.694;10.160;2022-08-23T10:11:16;7.10;;;2.90;;
2474;SDS011;1248;48.694;10.160;2022-08-23T10:13:44;3.83;;;2.53;;
2474;SDS011;1248;48.694;10.160;2022-08-23T10:16:14;5.57;;;2.90;;
2474;SDS011;1248;48.694;10.160;2022-08-23T10:18:47;4.50;;;2.53;;
2474;SDS011;1248;48.694;10.160;2022-08-23T10:21:22;3.90;;;2.63;;
2474;SDS011;1248;48.694;10.160;2022-08-23T10:23:55;3.50;;;2.70;;
2474;SDS011;1248;48.694;10.160;2022-08-23T10:26:35;4.27;;;2.73;;
2474;SDS011;1248;48.694;10.160;2022-08-23T10:29:06;5.10;;;3.10;;
2474;SDS011;1248;48.694;10.160;2022-08-23T10:31:58;5.50;;;2.93;;
2474;SDS011;1248;48.694;10.160;2022-08-23T10:37:27;5.57;;;3.03;;
2474;SDS011;1248;48.694;10.160;2022-08-23T10:40:04;3.50;;;2.73;;
2474;SDS011;1248;48.694;10.160;2022-08-23T10:42:35;4.43;;;3.40;;
2474;SDS011;1248;48.694;10.160;2022-08-23T10:45:07;5.37;;;3.23;;
2474;SDS011;1248;48.694;10.160;2022-08-23T10:47:43;3.30;;;2.70;;
2474;SDS011;1248;48.694;10.160;2022-08-23T10:50:17;5.93;;;2.90;;
2474;SDS011;1248;48.694;10.160;2022-08-23T10:52:49;2.80;;;2.60;;
2474;SDS011;1248;48.694;10.160;2022-08-23T10:55:24;4.70;;;3.70;;
2474;SDS011;1248;48.694;10.160;2022-08-23T10:58:04;5.27;;;2.70;;
2474;SDS011;1248;48.694;10.160;2022-08-23T11:00:33;6.20;;;2.73;;
2474;SDS011;1248;48.694;10.160;2022-08-23T11:03:05;3.23;;;2.93;;
2474;SDS011;1248;48.694;10.160;2022-08-23T11:05:36;5.07;;;2.53;;
2474;SDS011;1248;48.694;10.160;2022-08-23T11:08:07;5.83;;;3.20;;
2474;SDS011;1248;48.694;10.160;2022-08-23T11:10:43;4.40;;;3.07;;
2474;SDS011;1248;48.694;10.160;2022-08-23T11:13:19;3.50;;;2.97;;
2474;SDS011;1248;48.694;10.160;2022-08-23T11:15:54;2.97;;;2.67;;
2474;SDS011;1248;48.694;10.160;2022-08-23T11:18:43;6.03;;;2.80;;
2474;SDS011;1248;48.694;10.160;2022-08-23T11:27:30;2.43;;;2.23;;
2474;SDS011;1248;48.694;10.160;2022-08-23T11:33:18;4.40;;;2.93;;
2474;SDS011;1248;48.694;10.160;2022-08-23T11:35:47;5.33;;;3.00;;
2474;SDS011;1248;48.694;10.160;2022-08-23T11:38:16;4.17;;;2.67;;
2474;SDS011;1248;48.694;10.160;2022-08-23T11:41:12;5.40;;;2.63;;
2474;SDS011;1248;48.694;10.160;2022-08-23T11:43:47;6.50;;;2.73;;
2474;SDS011;1248;48.694;10.160;2022-08-23T11:46:29;7.10;;;3.30;;
2474;SDS011;1248;48.694;10.160;2022-08-23T11:51:50;2.93;;;2.30;;
2474;SDS011;1248;48.694;10.160;2022-08-23T11:54:30;4.20;;;2.10;;
2474;SDS011;1248;48.694;10.160;2022-08-23T11:57:10;3.83;;;2.80;;
2474;SDS011;1248;48.694;10.160;2022-08-23T12:02:43;4.00;;;2.80;;
2474;SDS011;1248;48.694;10.160;2022-08-23T12:05:19;5.10;;;2.73;;
2474;SDS011;1248;48.694;10.160;2022-08-23T12:11:02;4.10;;;2.50;;
2474;SDS011;1248;48.694;10.160;2022-08-23T12:13:44;3.17;;;2.70;;
2474;SDS011;1248;48.694;10.160;2022-08-23T12:19:05;4.43;;;2.37;;
2474;SDS011;1248;48.694;10.160;2022-08-23T12:21:39;3.70;;;2.60;;
2474;SDS011;1248;48.694;10.160;2022-08-23T12:24:14;6.40;;;2.80;;
2474;SDS011;1248;48.694;10.160;2022-08-23T12:26:47;4.53;;;2.90;;
2474;SDS011;1248;48.694;10.160;2022-08-23T12:29:21;3.23;;;2.20;;
2474;SDS011;1248;48.694;10.160;2022-08-23T12:31:55;3.10;;;2.30;;
2474;SDS011;1248;48.694;10.160;2022-08-23T12:34:25;3.43;;;2.27;;
2474;SDS011;1248;48.694;10.160;2022-08-23T12:36:56;3.80;;;2.10;;
2474;SDS011;1248;48.694;10.160;2022-08-23T12:39:28;3.67;;;2.23;;
2474;SDS011;1248;48.694;10.160;2022-08-23T12:42:02;2.70;;;2.50;;
2474;SDS011;1248;48.694;10.160;2022-08-23T12:44:33;4.70;;;2.33;;
2474;SDS011;1248;48.694;10.160;2022-08-23T12:47:08;3.07;;;2.50;;
2474;SDS011;1248;48.694;10.160;2022-08-23T12:49:39;4.80;;;2.70;;
2474;SDS011;1248;48.694;10.160;2022-08-23T12:52:08;3.13;;;2.07;;
2474;SDS011;1248;48.694;10.160;2022-08-23T12:54:37;4.50;;;2.10;;
2474;SDS011;1248;48.694;10.160;2022-08-23T12:57:06;4.20;;;2.53;;
2474;SDS011;1248;48.694;10.160;2022-08-23T12:59:38;2.60;;;2.40;;
2474;SDS011;1248;48.694;10.160;2022-08-23T13:02:09;3.40;;;2.10;;
2474;SDS011;1248;48.694;10.160;2022-08-23T13:04:38;3.23;;;2.00;;
2474;SDS011;1248;48.694;10.160;2022-08-23T13:07:06;3.33;;;2.13;;
2474;SDS011;1248;48.694;10.160;2022-08-23T13:09:36;3.57;;;2.37;;
2474;SDS011;1248;48.694;10.160;2022-08-23T13:12:05;8.03;;;2.43;;
2474;SDS011;1248;48.694;10.160;2022-08-23T13:14:35;4.80;;;2.40;;
2474;SDS011;1248;48.694;10.160;2022-08-23T13:17:11;4.27;;;2.07;;
2474;SDS011;1248;48.694;10.160;2022-08-23T13:19:41;2.73;;;2.03;;
2474;SDS011;1248;48.694;10.160;2022-08-23T13:22:09;2.53;;;2.10;;
2474;SDS011;1248;48.694;10.160;2022-08-23T13:24:38;3.30;;;1.80;;
2474;SDS011;1248;48.694;10.160;2022-08-23T13:27:14;2.40;;;2.20;;
2474;SDS011;1248;48.694;10.160;2022-08-23T13:29:52;5.40;;;2.50;;
2474;SDS011;1248;48.694;10.160;2022-08-23T13:32:28;3.20;;;2.53;;
2474;SDS011;1248;48.694;10.160;2022-08-23T13:38:08;2.33;;;2.03;;
2474;SDS011;1248;48.694;10.160;2022-08-23T13:40:38;3.23;;;2.17;;
2474;SDS011;1248;48.694;10.160;2022-08-23T13:43:08;3.93;;;2.67;;
2474;SDS011;1248;48.694;10.160;2022-08-23T13:45:44;3.90;;;2.23;;
2474;SDS011;1248;48.694;10.160;2022-08-23T13:48:13;6.40;;;2.63;;
2474;SDS011;1248;48.694;10.160;2022-08-23T13:50:41;4.70;;;2.30;;
2474;SDS011;1248;48.694;10.160;2022-08-23T13:53:09;5.50;;;2.77;;
2474;SDS011;1248;48.694;10.160;2022-08-23T13:55:39;3.90;;;2.10;;
2474;SDS011;1248;48.694;10.160;2022-08-23T13:58:08;6.87;;;2.70;;
2474;SDS011;1248;48.694;10.160;2022-08-23T14:00:36;2.50;;;2.30;;
2474;SDS011;1248;48.694;10.160;2022-08-23T14:03:04;3.37;;;2.90;;
2474;SDS011;1248;48.694;10.160;2022-08-23T14:05:32;3.20;;;2.43;;
2474;SDS011;1248;48.694;10.160;2022-08-23T14:07:59;3.53;;;2.40;;
2474;SDS011;1248;48.694;10.160;2022-08-23T14:10:26;3.80;;;2.60;;
2474;SDS011;1248;48.694;10.160;2022-08-23T14:12:54;3.93;;;2.30;;
2474;SDS011;1248;48.694;10.160;2022-08-23T14:15:21;2.70;;;2.50;;
2474;SDS011;1248;48.694;10.160;2022-08-23T14:17:49;3.27;;;2.17;;
2474;SDS011;1248;48.694;10.160;2022-08-23T14:20:19;4.33;;;2.03;;
2474;SDS011;1248;48.694;10.160;2022-08-23T14:22:48;4.67;;;2.00;;
2474;SDS011;1248;48.694;10.160;2022-08-23T14:25:15;4.93;;;2.40;;
2474;SDS011;1248;48.694;10.160;2022-08-23T14:27:44;2.67;;;2.17;;
2474;SDS011;1248;48.694;10.160;2022-08-23T14:30:21;4.00;;;2.30;;
2474;SDS011;1248;48.694;10.160;2022-08-23T14:32:49;2.57;;;2.37;;
2474;SDS011;1248;48.694;10.160;2022-08-23T14:35:17;3.80;;;2.20;;
2474;SDS011;1248;48.694;10.160;2022-08-23T14:37:45;3.20;;;2.20;;
2474;SDS011;1248;48.694;10.160;2022-08-23T14:40:13;3.80;;;2.00;;
2474;SDS011;1248;48.694;10.160;2022-08-23T14:42:41;3.63;;;2.30;;
2474;SDS011;1248;48.694;10.160;2022-08-23T14:45:09;4.50;;;2.00;;
2474;SDS011;1248;48.694;10.160;2022-08-23T14:47:37;3.60;;;2.40;;
2474;SDS011;1248;48.694;10.160;2022-08-23T14:50:05;6.33;;;2.33;;
2474;SDS011;1248;48.694;10.160;2022-08-23T14:52:34;4.83;;;2.73;;
2474;SDS011;1248;48.694;10.160;2022-08-23T14:55:03;2.37;;;2.17;;
2474;SDS011;1248;48.694;10.160;2022-08-23T14:57:31;3.00;;;2.07;;
2474;SDS011;1248;48.694;10.160;2022-08-23T14:59:58;2.23;;;2.03;;
2474;SDS011;1248;48.694;10.160;2022-08-23T15:02:25;2.60;;;2.07;;
2474;SDS011;1248;48.694;10.160;2022-08-23T15:04:53;3.13;;;2.30;;
2474;SDS011;1248;48.694;10.160;2022-08-23T15:07:20;4.70;;;2.13;;
2474;SDS011;1248;48.694;10.160;2022-08-23T15:09:48;3.03;;;2.07;;
2474;SDS011;1248;48.694;10.160;2022-08-23T15:12:18;5.20;;;2.27;;
2474;SDS011;1248;48.694;10.160;2022-08-23T15:14:45;3.50;;;2.23;;
2474;SDS011;1248;48.694;10.160;2022-08-23T15:17:12;3.70;;;2.60;;
2474;SDS011;1248;48.694;10.160;2022-08-23T15:19:39;6.17;;;2.70;;
2474;SDS011;1248;48.694;10.160;2022-08-23T15:22:06;7.33;;;2.03;;
2474;SDS011;1248;48.694;10.160;2022-08-23T15:24:33;2.93;;;1.73;;
2474;SDS011;1248;48.694;10.160;2022-08-23T15:27:00;2.30;;;2.07;;
2474;SDS011;1248;48.694;10.160;2022-08-23T15:29:30;2.17;;;1.97;;
2474;SDS011;1248;48.694;10.160;2022-08-23T15:31:57;2.50;;;2.30;;
2474;SDS011;1248;48.694;10.160;2022-08-23T15:34:24;3.30;;;2.47;;
2474;SDS011;1248;48.694;10.160;2022-08-23T15:36:51;3.10;;;2.37;;
2474;SDS011;1248;48.694;10.160;2022-08-23T15:39:18;3.77;;;2.23;;
2474;SDS011;1248;48.694;10.160;2022-08-23T15:41:45;3.93;;;2.27;;
2474;SDS011;1248;48.694;10.160;2022-08-23T15:44:12;5.00;;;2.33;;
2474;SDS011;1248;48.694;10.160;2022-08-23T15:46:41;3.83;;;2.10;;